Time;durP1;ratioP1;P1;durP2;ratioP2;P2;SDS_P1;SDS_P2;PMS_P1;PMS_P2;Temp;Humidity;BMP_temperature;BMP_pressure;BME280_temperature;BME280_humidity;BME280_pressure;Samples;Min_cycle;Max_cycle;Signal;HPM_P1;HPM_P2
2022/05/08 00:00:13;;;;;;;2.92;1.92;;;14.60;69.90;;;;;;5110520;28;20027;-61
2022/05/08 00:02:40;;;;;;;5.57;2.00;;;14.60;70.00;;;;;;5104586;27;20035;-65
2022/05/08 00:05:07;;;;;;;7.78;2.75;;;14.60;70.00;;;;;;5125397;27;20425;-66
2022/05/08 00:07:32;;;;;;;2.17;1.85;;;14.60;70.00;;;;;;5107591;27;20031;-61
2022/05/08 00:09:58;;;;;;;3.67;2.22;;;14.60;70.00;;;;;;5121568;27;20031;-61
2022/05/08 00:12:24;;;;;;;3.78;1.90;;;14.50;70.20;;;;;;5110627;28;20394;-61
2022/05/08 00:14:50;;;;;;;5.80;2.10;;;14.40;70.20;;;;;;5111298;27;20478;-61
2022/05/08 00:17:15;;;;;;;2.60;2.28;;;14.40;70.30;;;;;;5109147;27;20015;-61
2022/05/08 00:19:43;;;;;;;4.95;2.28;;;14.40;70.40;;;;;;5087727;28;20115;-61
2022/05/08 00:22:09;;;;;;;1.73;1.63;;;14.40;70.40;;;;;;5116252;27;20061;-62
2022/05/08 00:24:35;;;;;;;2.65;1.83;;;14.40;70.40;;;;;;5126861;27;20027;-61
2022/05/08 00:27:00;;;;;;;4.43;2.75;;;14.40;70.40;;;;;;5123818;27;20391;-61
2022/05/08 00:29:26;;;;;;;2.88;2.67;;;14.40;70.30;;;;;;5119206;27;20035;-65
2022/05/08 00:31:52;;;;;;;5.40;2.70;;;14.40;70.40;;;;;;5109497;28;20099;-65
2022/05/08 00:34:17;;;;;;;4.20;2.47;;;14.40;70.50;;;;;;5117814;27;20108;-66
2022/05/08 00:36:43;;;;;;;3.88;2.08;;;14.40;70.50;;;;;;5108598;28;20027;-61
2022/05/08 00:39:09;;;;;;;2.42;2.00;;;14.40;70.40;;;;;;5115659;27;20478;-65
2022/05/08 00:41:34;;;;;;;7.75;2.38;;;14.30;70.40;;;;;;5109850;28;20027;-65
2022/05/08 00:44:00;;;;;;;1.85;1.70;;;14.30;70.50;;;;;;5106393;27;20089;-61
2022/05/08 00:46:27;;;;;;;8.82;3.25;;;14.20;70.50;;;;;;5109876;28;20522;-61
2022/05/08 00:48:53;;;;;;;3.80;2.65;;;14.20;70.60;;;;;;5092125;27;20045;-61
2022/05/08 00:51:19;;;;;;;2.83;2.13;;;14.20;70.50;;;;;;5101042;28;20127;-61
2022/05/08 00:53:51;;;;;;;1.85;1.70;;;14.20;70.50;;;;;;5124863;27;20038;-65
2022/05/08 00:56:18;;;;;;;3.25;2.00;;;14.10;70.50;;;;;;5111138;27;20026;-61
2022/05/08 00:58:48;;;;;;;2.72;1.95;;;14.10;70.40;;;;;;5117710;27;20058;-61
2022/05/08 01:01:14;;;;;;;4.32;2.25;;;14.10;70.40;;;;;;5108472;28;20019;-65
2022/05/08 01:03:41;;;;;;;6.07;2.42;;;14.00;70.40;;;;;;5105374;27;20455;-66
2022/05/08 01:06:11;;;;;;;3.28;2.53;;;13.90;70.30;;;;;;5110423;27;20028;-65
2022/05/08 01:08:39;;;;;;;6.40;2.47;;;13.90;70.40;;;;;;5120082;28;20038;-65
2022/05/08 01:11:06;;;;;;;2.70;1.88;;;13.90;70.30;;;;;;5111276;28;20024;-61
2022/05/08 01:13:33;;;;;;;3.92;1.70;;;13.80;70.20;;;;;;5094745;28;20039;-61
2022/05/08 01:15:58;;;;;;;5.18;2.38;;;13.80;70.00;;;;;;5107839;28;20027;-61
2022/05/08 01:18:25;;;;;;;3.70;1.75;;;13.80;69.80;;;;;;5109645;28;20028;-61
2022/05/08 01:20:51;;;;;;;4.22;1.42;;;13.80;69.70;;;;;;5109793;28;20392;-61
2022/05/08 01:23:19;;;;;;;5.22;1.90;;;13.70;69.60;;;;;;5091098;28;20035;-61
2022/05/08 01:25:51;;;;;;;3.05;1.98;;;13.70;69.60;;;;;;5109663;28;20036;-61
2022/05/08 01:28:17;;;;;;;;;;;13.70;69.50;;;;;;5112437;28;20110;-61
2022/05/08 01:30:44;;;;;;;1.95;1.50;;;13.70;69.30;;;;;;5106027;28;20007;-61
2022/05/08 01:33:10;;;;;;;4.95;2.22;;;13.70;69.20;;;;;;5109823;28;20034;-61
2022/05/08 01:35:37;;;;;;;1.50;1.35;;;13.60;69.10;;;;;;5109386;28;20035;-61
2022/05/08 01:38:04;;;;;;;5.20;1.73;;;13.60;68.90;;;;;;5106734;28;20059;-61
2022/05/08 01:40:30;;;;;;;7.18;2.20;;;13.70;68.90;;;;;;5108046;28;20034;-61
2022/05/08 01:42:57;;;;;;;1.65;1.40;;;13.70;68.60;;;;;;5107418;28;20576;-61
2022/05/08 01:45:23;;;;;;;10.55;1.55;;;13.60;68.60;;;;;;5111784;28;20035;-61
2022/05/08 01:50:34;;;;;;;5.50;1.08;;;13.50;68.50;;;;;;5109436;28;20039;-61
2022/05/08 01:53:00;;;;;;;1.40;1.30;;;13.50;68.50;;;;;;5109343;28;20047;-62
2022/05/08 01:55:26;;;;;;;6.35;2.13;;;13.50;68.60;;;;;;5119750;28;20054;-61
2022/05/08 01:57:53;;;;;;;10.10;2.67;;;13.50;68.50;;;;;;5117678;28;20044;-61
2022/05/08 02:00:20;;;;;;;2.83;1.27;;;13.40;68.50;;;;;;5109686;28;20042;-61
2022/05/08 02:02:48;;;;;;;4.78;1.73;;;13.40;68.50;;;;;;5109063;28;20051;-61
2022/05/08 02:05:24;;;;;;;7.55;1.80;;;13.40;68.50;;;;;;5115449;27;20035;-61
2022/05/08 02:07:50;;;;;;;2.42;1.30;;;13.40;68.40;;;;;;5129111;27;20028;-61
2022/05/08 02:10:17;;;;;;;2.28;1.63;;;13.30;68.30;;;;;;5113034;28;20477;-60
2022/05/08 02:12:44;;;;;;;3.22;1.45;;;13.30;68.50;;;;;;5112373;28;20028;-61
2022/05/08 02:15:11;;;;;;;1.27;1.05;;;13.30;68.40;;;;;;5110469;28;20020;-61
2022/05/08 02:17:37;;;;;;;6.95;2.38;;;13.30;68.30;;;;;;5093860;28;20036;-61
2022/05/08 02:20:08;;;;;;;2.55;1.60;;;13.30;68.40;;;;;;5112951;28;20027;-61
2022/05/08 02:22:35;;;;;;;5.18;1.33;;;13.30;68.40;;;;;;5108172;27;20024;-61
2022/05/08 02:25:01;;;;;;;3.05;1.20;;;13.30;68.40;;;;;;5094157;28;20092;-61
2022/05/08 02:27:38;;;;;;;2.05;1.33;;;13.30;68.40;;;;;;5124248;27;20039;-61
2022/05/08 02:30:06;;;;;;;2.45;1.45;;;13.30;68.30;;;;;;5115404;27;20055;-61
2022/05/08 02:32:31;;;;;;;2.20;1.10;;;13.30;68.30;;;;;;5110244;27;20589;-61
2022/05/08 02:34:57;;;;;;;2.95;1.35;;;13.30;68.30;;;;;;5074369;28;20058;-61
2022/05/08 02:37:23;;;;;;;4.90;1.30;;;13.20;68.30;;;;;;5109381;28;20027;-61
2022/05/08 02:39:49;;;;;;;4.18;2.28;;;13.20;68.30;;;;;;5104654;27;20027;-61
2022/05/08 02:42:15;;;;;;;4.35;1.65;;;13.20;68.40;;;;;;5111702;28;20034;-65
2022/05/08 02:44:41;;;;;;;6.13;2.47;;;13.20;68.40;;;;;;5111170;28;20096;-65
2022/05/08 02:47:06;;;;;;;5.03;1.65;;;13.10;68.40;;;;;;5117429;27;20031;-65
2022/05/08 02:49:32;;;;;;;4.20;1.42;;;13.10;68.50;;;;;;5104066;27;20048;-65
2022/05/08 02:51:58;;;;;;;16.10;2.05;;;13.10;68.50;;;;;;5110201;28;20108;-65
2022/05/08 02:54:23;;;;;;;1.75;1.55;;;13.10;68.50;;;;;;5111751;28;20080;-65
2022/05/08 02:59:33;;;;;;;4.25;1.60;;;13.00;68.60;;;;;;5115420;27;20053;-65
2022/05/08 03:01:59;;;;;;;7.20;1.60;;;13.00;68.50;;;;;;5113644;27;20428;-65
2022/05/08 03:04:25;;;;;;;3.40;1.45;;;12.90;68.50;;;;;;5131937;27;20050;-65
2022/05/08 03:06:50;;;;;;;8.50;2.00;;;12.90;68.60;;;;;;5127966;27;20059;-65
2022/05/08 03:09:16;;;;;;;4.00;1.67;;;12.90;68.70;;;;;;5111147;28;20032;-65
2022/05/08 03:11:41;;;;;;;1.67;1.30;;;12.80;68.80;;;;;;5131448;27;20519;-65
2022/05/08 03:14:07;;;;;;;8.20;1.45;;;12.80;68.80;;;;;;5131044;27;20052;-65
2022/05/08 03:16:33;;;;;;;3.90;1.65;;;12.80;68.80;;;;;;5130766;27;20097;-65
2022/05/08 03:18:59;;;;;;;5.68;2.05;;;12.80;68.70;;;;;;5114937;27;20027;-65
2022/05/08 03:21:24;;;;;;;5.55;1.15;;;12.80;68.70;;;;;;5092922;28;20471;-61
2022/05/08 03:23:51;;;;;;;5.35;1.50;;;12.70;68.70;;;;;;5092664;28;20024;-61
2022/05/08 03:26:19;;;;;;;1.75;0.80;;;12.80;68.80;;;;;;5110644;28;20232;-65
2022/05/08 03:28:45;;;;;;;7.45;1.40;;;12.70;68.80;;;;;;5108630;28;20028;-65
2022/05/08 03:31:12;;;;;;;3.33;1.70;;;12.70;68.80;;;;;;5111125;28;20031;-65
2022/05/08 03:33:38;;;;;;;3.67;1.55;;;12.70;68.80;;;;;;5110456;28;20019;-65
2022/05/08 03:36:06;;;;;;;1.27;1.13;;;12.70;68.80;;;;;;5092988;28;20016;-64
2022/05/08 03:38:33;;;;;;;2.58;1.33;;;12.60;68.80;;;;;;5119245;27;20115;-64
2022/05/08 03:41:00;;;;;;;3.22;1.38;;;12.60;68.80;;;;;;5110727;28;20055;-64
2022/05/08 03:43:26;;;;;;;5.38;2.35;;;12.60;68.80;;;;;;5111981;27;20031;-64
2022/05/08 03:45:52;;;;;;;8.50;2.05;;;12.60;68.80;;;;;;5110598;28;20108;-64
2022/05/08 03:48:19;;;;;;;5.78;1.33;;;12.50;68.70;;;;;;5125887;27;20062;-64
2022/05/08 03:50:45;;;;;;;1.83;0.93;;;12.60;68.80;;;;;;5112934;27;20032;-64
2022/05/08 03:53:11;;;;;;;5.47;1.88;;;12.50;68.70;;;;;;5109990;28;20073;-65
2022/05/08 03:55:37;;;;;;;2.53;1.38;;;12.50;68.70;;;;;;5104648;27;20036;-60
2022/05/08 03:58:03;;;;;;;3.15;1.08;;;12.50;69.30;;;;;;5116232;27;20140;-64
2022/05/08 04:00:28;;;;;;;3.88;0.95;;;12.40;69.40;;;;;;5118717;27;20034;-64
2022/05/08 04:02:55;;;;;;;5.68;2.00;;;12.40;68.80;;;;;;5109812;28;20058;-61
2022/05/08 04:05:20;;;;;;;2.05;1.13;;;12.40;68.80;;;;;;5110354;28;20032;-60
2022/05/08 04:07:46;;;;;;;5.18;2.00;;;12.40;68.80;;;;;;5109741;28;20042;-60
2022/05/08 04:10:15;;;;;;;3.53;1.73;;;12.40;68.90;;;;;;5108478;28;20063;-60
2022/05/08 04:12:44;;;;;;;5.25;1.85;;;12.40;69.00;;;;;;5109759;28;20023;-60
2022/05/08 04:17:55;;;;;;;7.75;1.67;;;12.30;69.10;;;;;;5109023;28;20119;-64
2022/05/08 04:20:21;;;;;;;8.32;1.75;;;12.30;69.10;;;;;;5119641;27;20125;-65
2022/05/08 04:25:31;;;;;;;3.15;1.33;;;12.30;69.10;;;;;;5117344;27;20440;-60
2022/05/08 04:27:57;;;;;;;2.17;1.00;;;12.30;69.20;;;;;;5128853;27;20055;-60
2022/05/08 04:30:22;;;;;;;2.35;1.77;;;12.20;69.10;;;;;;5095114;27;20031;-60
2022/05/08 04:32:48;;;;;;;1.67;0.88;;;12.20;69.20;;;;;;5112536;27;20032;-60
2022/05/08 04:35:13;;;;;;;7.15;1.70;;;12.20;69.20;;;;;;5109626;28;20081;-60
2022/05/08 04:37:39;;;;;;;7.85;1.65;;;12.20;69.20;;;;;;5108983;28;20493;-60
2022/05/08 04:40:06;;;;;;;2.80;1.23;;;12.20;69.40;;;;;;5109220;28;20474;-60
2022/05/08 04:42:32;;;;;;;2.03;1.33;;;12.20;69.40;;;;;;5111207;27;20046;-60
2022/05/08 04:44:59;;;;;;;3.88;1.52;;;12.20;69.40;;;;;;5126654;27;20023;-60
2022/05/08 04:47:25;;;;;;;8.70;1.90;;;12.10;69.40;;;;;;5108594;28;20397;-61
2022/05/08 04:49:51;;;;;;;4.25;1.35;;;12.10;69.50;;;;;;5106605;28;20024;-60
2022/05/08 04:52:17;;;;;;;8.93;2.53;;;12.10;69.50;;;;;;5108569;28;20043;-60
2022/05/08 04:54:43;;;;;;;3.15;1.15;;;12.10;69.60;;;;;;5090460;28;20032;-60
2022/05/08 04:57:08;;;;;;;5.63;1.77;;;12.10;69.60;;;;;;5108609;28;20055;-60
2022/05/08 04:59:34;;;;;;;4.25;1.27;;;12.00;69.60;;;;;;5108760;28;20035;-61
2022/05/08 05:02:02;;;;;;;4.40;1.25;;;12.10;69.60;;;;;;5102006;28;20035;-60
2022/05/08 05:04:28;;;;;;;3.75;1.27;;;12.10;69.60;;;;;;5099493;28;20023;-62
2022/05/08 05:06:54;;;;;;;5.00;1.60;;;12.10;69.70;;;;;;5108565;28;20040;-60
2022/05/08 05:09:19;;;;;;;4.30;1.85;;;12.10;69.70;;;;;;5108705;28;20040;-60
2022/05/08 05:11:45;;;;;;;5.93;1.42;;;12.10;69.70;;;;;;5122673;28;20110;-61
2022/05/08 05:14:10;;;;;;;2.60;1.15;;;12.00;69.70;;;;;;5129378;28;20065;-60
2022/05/08 05:16:36;;;;;;;4.15;1.40;;;12.00;69.70;;;;;;5110722;28;20172;-61
2022/05/08 05:19:04;;;;;;;2.05;1.50;;;12.00;69.70;;;;;;5102128;28;20032;-60
2022/05/08 05:21:30;;;;;;;2.45;1.52;;;12.10;69.80;;;;;;5105904;28;20477;-60
2022/05/08 05:23:55;;;;;;;2.50;1.38;;;12.10;69.70;;;;;;5090368;28;20032;-60
2022/05/08 05:26:21;;;;;;;8.80;2.17;;;12.10;69.70;;;;;;5108585;28;20443;-61
2022/05/08 05:28:47;;;;;;;5.28;1.90;;;12.10;69.60;;;;;;5090837;28;20391;-60
2022/05/08 05:31:13;;;;;;;3.88;1.73;;;12.10;69.50;;;;;;5108789;28;20026;-61
2022/05/08 05:33:39;;;;;;;2.20;1.35;;;12.10;70.00;;;;;;5108666;28;20019;-60
2022/05/08 05:36:05;;;;;;;3.25;1.05;;;12.10;69.40;;;;;;5107754;28;20019;-60
2022/05/08 05:38:30;;;;;;;5.72;1.83;;;12.10;69.50;;;;;;5108674;28;20030;-60
2022/05/08 05:40:56;;;;;;;1.02;0.52;;;12.10;69.50;;;;;;5111732;28;20309;-60
2022/05/08 05:43:22;;;;;;;2.47;1.05;;;12.10;69.50;;;;;;5112440;28;20367;-60
2022/05/08 05:47:49;;;;;;;1.38;0.93;;;12.10;69.40;;;;;;5095347;28;20027;-60
2022/05/08 05:48:35;;;;;;;3.28;1.92;;;12.10;69.40;;;;;;5111980;28;20031;-60
2022/05/08 05:51:01;;;;;;;2.70;1.50;;;12.20;69.40;;;;;;5104983;28;20026;-60
2022/05/08 05:53:27;;;;;;;1.92;1.08;;;12.20;69.30;;;;;;5108664;28;20048;-60
2022/05/08 05:55:54;;;;;;;4.82;1.38;;;12.20;69.30;;;;;;5107028;28;20084;-60
2022/05/08 05:58:19;;;;;;;5.55;0.80;;;12.20;69.30;;;;;;5111680;28;20336;-60
2022/05/08 06:00:45;;;;;;;6.22;1.50;;;12.30;69.20;;;;;;5112240;28;20027;-60
2022/05/08 06:03:11;;;;;;;2.10;0.80;;;12.30;69.10;;;;;;5119589;27;20075;-60
2022/05/08 06:05:36;;;;;;;8.57;1.63;;;12.40;69.00;;;;;;5085835;28;20040;-60
2022/05/08 06:08:02;;;;;;;7.88;1.80;;;12.40;69.00;;;;;;5103742;28;20038;-60
2022/05/08 06:10:28;;;;;;;4.85;1.65;;;12.50;68.80;;;;;;5112228;28;20039;-60
2022/05/08 06:12:53;;;;;;;1.05;0.90;;;12.50;68.60;;;;;;5110501;28;20130;-60
2022/05/08 06:15:19;;;;;;;0.90;0.75;;;12.50;68.40;;;;;;5112117;28;20083;-60
2022/05/08 06:17:45;;;;;;;10.85;1.23;;;12.50;68.20;;;;;;5110208;28;20084;-60
2022/05/08 06:20:11;;;;;;;1.20;0.93;;;12.50;68.20;;;;;;5112125;28;20142;-60
2022/05/08 06:22:37;;;;;;;2.13;1.13;;;12.60;68.10;;;;;;5112496;27;20583;-59
2022/05/08 06:25:03;;;;;;;3.40;0.77;;;12.60;67.90;;;;;;5095821;28;20023;-60
2022/05/08 06:27:29;;;;;;;6.35;1.67;;;12.60;67.70;;;;;;5110079;28;20122;-59
2022/05/08 06:29:55;;;;;;;5.63;1.60;;;12.60;67.70;;;;;;5109344;28;20102;-59
2022/05/08 06:32:21;;;;;;;1.02;0.80;;;12.70;67.70;;;;;;5111960;28;20080;-59
2022/05/08 06:34:47;;;;;;;1.88;0.98;;;12.70;67.60;;;;;;5111521;28;20023;-63
2022/05/08 06:37:13;;;;;;;0.75;0.73;;;12.70;67.40;;;;;;5111276;28;20038;-64
2022/05/08 06:39:38;;;;;;;3.58;1.33;;;12.80;67.20;;;;;;5111759;28;20024;-64
2022/05/08 06:42:05;;;;;;;3.13;1.10;;;12.80;67.00;;;;;;5111691;28;20040;-64
2022/05/08 06:44:31;;;;;;;1.77;1.27;;;12.80;66.80;;;;;;5112001;27;20038;-64
2022/05/08 06:46:58;;;;;;;2.35;1.00;;;12.80;66.80;;;;;;5111455;28;20036;-64
2022/05/08 06:49:24;;;;;;;0.70;0.70;;;12.90;66.60;;;;;;5111673;28;20023;-63
2022/05/08 06:51:49;;;;;;;1.67;1.00;;;12.90;66.40;;;;;;5110547;28;20390;-63
2022/05/08 06:54:15;;;;;;;2.83;0.88;;;12.90;66.50;;;;;;5111346;28;20039;-63
2022/05/08 06:56:41;;;;;;;1.77;0.98;;;13.00;66.30;;;;;;5111322;28;20078;-59
2022/05/08 07:01:52;;;;;;;1.63;1.08;;;13.00;65.80;;;;;;5111440;28;20144;-64
2022/05/08 07:04:18;;;;;;;1.33;0.65;;;13.00;65.50;;;;;;5092886;28;20023;-60
2022/05/08 07:06:44;;;;;;;11.05;1.17;;;13.00;65.60;;;;;;5106309;28;20040;-59
2022/05/08 07:09:10;;;;;;;4.70;1.67;;;13.10;65.60;;;;;;5093388;27;20127;-60
2022/05/08 07:11:38;;;;;;;1.92;0.80;;;13.10;65.30;;;;;;5117339;27;20385;-60
2022/05/08 07:14:04;;;;;;;2.63;1.25;;;13.10;65.20;;;;;;5111358;27;20023;-60
2022/05/08 07:16:30;;;;;;;5.20;1.45;;;13.20;65.20;;;;;;5108503;27;20104;-60
2022/05/08 07:18:56;;;;;;;1.30;0.90;;;13.20;65.10;;;;;;5090026;28;20074;-60
2022/05/08 07:21:21;;;;;;;1.95;0.75;;;13.30;65.00;;;;;;5091825;28;20028;-60
2022/05/08 07:23:48;;;;;;;6.63;1.05;;;13.40;64.70;;;;;;5106164;27;20023;-59
2022/05/08 07:26:14;;;;;;;2.08;1.02;;;13.40;64.50;;;;;;5110942;27;20027;-58
2022/05/08 07:28:40;;;;;;;4.45;1.17;;;13.40;64.20;;;;;;5100077;28;20114;-59
2022/05/08 07:31:06;;;;;;;2.33;0.80;;;13.50;64.00;;;;;;5100111;27;20020;-59
2022/05/08 07:33:35;;;;;;;1.17;0.55;;;13.50;63.70;;;;;;5105526;28;20032;-64
2022/05/08 07:36:13;;;;;;;5.47;0.75;;;13.60;63.60;;;;;;5104337;28;20017;-60
2022/05/08 07:38:43;;;;;;;1.98;0.82;;;13.60;63.70;;;;;;5093807;28;20028;-61
2022/05/08 07:41:10;;;;;;;3.40;1.05;;;13.60;63.60;;;;;;5108874;27;20019;-60
2022/05/08 07:43:37;;;;;;;1.58;0.90;;;13.70;63.60;;;;;;5082191;28;20040;-61
2022/05/08 07:46:04;;;;;;;1.48;0.88;;;13.70;63.60;;;;;;5092912;28;20054;-60
2022/05/08 07:48:30;;;;;;;1.38;0.88;;;13.80;63.50;;;;;;5075990;28;20044;-60
2022/05/08 07:50:59;;;;;;;2.00;0.95;;;13.80;63.30;;;;;;5089939;28;20016;-60
2022/05/08 07:53:26;;;;;;;1.17;0.75;;;13.90;63.20;;;;;;5126599;27;20051;-60
2022/05/08 07:55:54;;;;;;;2.03;1.05;;;13.90;63.30;;;;;;5130723;27;20229;-61
2022/05/08 07:58:21;;;;;;;2.80;1.10;;;14.00;63.20;;;;;;5096725;28;20398;-60
2022/05/08 08:00:49;;;;;;;2.80;1.17;;;14.00;62.80;;;;;;5097585;28;20027;-61
2022/05/08 08:03:16;;;;;;;2.35;0.70;;;14.10;62.40;;;;;;5112444;27;20035;-60
2022/05/08 08:05:43;;;;;;;5.38;1.13;;;14.10;62.30;;;;;;5129800;27;20042;-60
2022/05/08 08:08:08;;;;;;;5.65;1.33;;;14.10;62.40;;;;;;5130411;27;20046;-60
2022/05/08 08:10:34;;;;;;;0.95;0.88;;;14.20;62.20;;;;;;5130527;27;20481;-60
2022/05/08 08:13:00;;;;;;;0.65;0.65;;;14.20;62.30;;;;;;5119534;27;20035;-60
2022/05/08 08:15:26;;;;;;;1.30;0.73;;;14.30;62.20;;;;;;5129561;27;20023;-60
2022/05/08 08:17:52;;;;;;;3.05;1.10;;;14.40;61.90;;;;;;5090206;28;20024;-60
2022/05/08 08:20:17;;;;;;;4.13;1.52;;;14.50;61.40;;;;;;5095151;28;20440;-60
2022/05/08 08:22:43;;;;;;;3.22;0.95;;;14.50;61.10;;;;;;5092779;28;20409;-60
2022/05/08 08:25:09;;;;;;;3.15;1.17;;;14.50;61.10;;;;;;5123771;27;20058;-60
2022/05/08 08:27:35;;;;;;;0.88;0.70;;;14.60;61.20;;;;;;5106743;28;20024;-60
2022/05/08 08:30:03;;;;;;;3.90;1.27;;;14.60;61.20;;;;;;5109798;28;20435;-61
2022/05/08 08:32:31;;;;;;;1.75;0.82;;;14.70;60.80;;;;;;5110148;28;20035;-60
2022/05/08 08:34:57;;;;;;;0.95;0.80;;;14.80;61.60;;;;;;5111300;27;20031;-64
2022/05/08 08:37:23;;;;;;;4.32;0.88;;;14.80;61.00;;;;;;5130463;27;20079;-64
2022/05/08 08:39:49;;;;;;;2.25;1.08;;;14.90;60.90;;;;;;5130671;27;20019;-64
2022/05/08 08:42:28;;;;;;;2.65;1.05;;;15.00;60.80;;;;;;5130416;27;20087;-64
2022/05/08 08:47:55;;;;;;;1.73;1.17;;;15.10;60.00;;;;;;5130367;27;20049;-64
2022/05/08 08:50:26;;;;;;;0.60;0.60;;;15.20;60.00;;;;;;5130343;27;20058;-64
2022/05/08 08:52:53;;;;;;;0.95;0.95;;;15.20;60.00;;;;;;5091584;28;20121;-61
2022/05/08 08:55:20;;;;;;;2.45;1.30;;;15.20;59.90;;;;;;5090717;27;20027;-60
2022/05/08 08:57:46;;;;;;;5.82;1.33;;;15.30;59.50;;;;;;5123310;27;20035;-60
2022/05/08 09:00:13;;;;;;;3.30;1.23;;;15.30;59.20;;;;;;5111698;27;20498;-60
2022/05/08 09:02:39;;;;;;;3.25;1.00;;;15.30;58.30;;;;;;5128863;27;20390;-60
2022/05/08 09:05:07;;;;;;;3.00;1.45;;;15.30;57.90;;;;;;5124464;27;20039;-60
2022/05/08 09:07:39;;;;;;;3.30;0.85;;;15.30;57.30;;;;;;5106568;28;20115;-60
2022/05/08 09:10:14;;;;;;;3.53;1.07;;;15.30;57.70;;;;;;5104235;28;20035;-60
2022/05/08 09:13:02;;;;;;;3.95;0.88;;;15.40;57.80;;;;;;5109025;28;20257;-60
2022/05/08 09:15:34;;;;;;;1.58;0.73;;;15.40;57.70;;;;;;5111919;27;20035;-60
2022/05/08 09:18:04;;;;;;;2.50;1.42;;;15.50;56.40;;;;;;5109003;28;20419;-61
2022/05/08 09:20:36;;;;;;;0.75;0.75;;;15.60;56.60;;;;;;5111708;28;20032;-60
2022/05/08 09:23:18;;;;;;;1.73;0.90;;;15.60;56.40;;;;;;5106229;28;20047;-60
2022/05/08 09:25:54;;;;;;;1.17;1.08;;;15.60;56.70;;;;;;5094164;28;20058;-60
2022/05/08 09:28:30;;;;;;;1.77;1.15;;;15.70;56.70;;;;;;5102640;28;20051;-60
2022/05/08 09:31:01;;;;;;;2.80;1.40;;;15.80;56.00;;;;;;5104521;28;20506;-60
2022/05/08 09:33:42;;;;;;;4.10;1.33;;;15.90;56.10;;;;;;5107856;28;20028;-60
2022/05/08 09:36:24;;;;;;;0.60;0.60;;;16.00;55.80;;;;;;5104560;28;20482;-60
2022/05/08 09:38:54;;;;;;;1.02;0.70;;;16.00;55.70;;;;;;5109366;28;20495;-60
2022/05/08 09:41:30;;;;;;;4.78;1.08;;;16.10;55.30;;;;;;5128875;28;20082;-60
2022/05/08 09:44:17;;;;;;;1.65;0.90;;;16.10;55.60;;;;;;5122239;28;20027;-60
2022/05/08 09:46:45;;;;;;;0.95;0.50;;;16.30;55.50;;;;;;5108517;28;20044;-60
2022/05/08 09:49:21;;;;;;;3.15;0.80;;;16.40;54.80;;;;;;5109013;28;20027;-61
2022/05/08 09:51:48;;;;;;;3.00;1.17;;;16.40;54.50;;;;;;5106322;28;20020;-61
2022/05/08 09:54:18;;;;;;;1.67;0.80;;;16.50;54.30;;;;;;5108013;28;20475;-61
2022/05/08 09:56:45;;;;;;;3.42;1.00;;;16.60;53.80;;;;;;5089692;28;20020;-61
2022/05/08 09:59:11;;;;;;;1.75;0.70;;;16.70;53.60;;;;;;5106706;28;20092;-64
2022/05/08 10:01:38;;;;;;;2.58;0.90;;;16.80;53.30;;;;;;5098055;28;20121;-64
2022/05/08 10:04:04;;;;;;;1.52;1.00;;;16.90;53.50;;;;;;5097286;28;20027;-64
2022/05/08 10:06:36;;;;;;;0.52;0.52;;;17.00;53.70;;;;;;5105546;28;20739;-64
2022/05/08 10:14:35;;;;;;;0.82;0.68;;;17.20;53.10;;;;;;5113534;28;20453;-65
2022/05/08 10:17:01;;;;;;;1.67;1.05;;;17.20;51.40;;;;;;5112629;28;20028;-65
2022/05/08 10:19:26;;;;;;;1.17;0.75;;;17.30;52.10;;;;;;5107477;28;20023;-64
2022/05/08 10:22:09;;;;;;;3.53;1.15;;;17.30;51.80;;;;;;5110970;28;20039;-64
2022/05/08 10:24:53;;;;;;;0.50;0.50;;;17.30;51.50;;;;;;5111905;28;20490;-64
2022/05/08 10:27:24;;;;;;;3.10;0.70;;;17.50;52.10;;;;;;5115071;27;20026;-64
2022/05/08 10:29:49;;;;;;;2.03;1.20;;;17.60;52.10;;;;;;5113428;27;20035;-65
2022/05/08 10:32:33;;;;;;;2.10;0.80;;;17.80;51.90;;;;;;5097088;27;20538;-64
2022/05/08 10:35:25;;;;;;;1.58;0.90;;;17.80;50.70;;;;;;5113885;27;20376;-65
2022/05/08 10:38:12;;;;;;;2.47;0.90;;;17.80;50.00;;;;;;5110128;27;20012;-64
2022/05/08 10:40:39;;;;;;;1.13;0.73;;;17.70;50.20;;;;;;5090516;27;20054;-64
2022/05/08 10:43:28;;;;;;;2.35;0.85;;;17.80;50.90;;;;;;5105331;27;20024;-64
2022/05/08 10:45:54;;;;;;;1.10;0.90;;;18.00;50.30;;;;;;5092923;27;20035;-65
2022/05/08 10:48:21;;;;;;;0.73;0.55;;;18.10;49.70;;;;;;5109607;27;20375;-65
2022/05/08 10:50:50;;;;;;;1.55;0.77;;;18.20;48.90;;;;;;5100488;27;20059;-64
2022/05/08 10:53:21;;;;;;;0.82;0.82;;;18.30;49.30;;;;;;5110710;27;20036;-64
2022/05/08 10:55:46;;;;;;;0.75;0.70;;;18.40;50.20;;;;;;5108169;27;20034;-65
2022/05/08 10:58:12;;;;;;;0.88;0.70;;;18.50;48.50;;;;;;5104592;27;20390;-60
2022/05/08 11:00:38;;;;;;;1.27;0.80;;;18.60;48.80;;;;;;5103768;27;20521;-60
2022/05/08 11:03:04;;;;;;;2.75;0.90;;;18.70;48.70;;;;;;5102268;27;20030;-60
2022/05/08 11:05:36;;;;;;;0.77;0.60;;;18.80;48.90;;;;;;5112011;27;20035;-61
2022/05/08 11:08:10;;;;;;;0.77;0.70;;;19.00;49.10;;;;;;5108304;27;20035;-61
2022/05/08 11:10:40;;;;;;;0.70;0.70;;;19.10;48.50;;;;;;5102569;27;20035;-60
2022/05/08 11:13:12;;;;;;;0.70;0.70;;;19.20;47.60;;;;;;5101862;27;20024;-61
2022/05/08 11:15:45;;;;;;;2.05;0.43;;;19.20;47.10;;;;;;5087110;28;20035;-61
2022/05/08 11:18:18;;;;;;;0.73;0.70;;;19.40;47.70;;;;;;5104604;27;20030;-61
2022/05/08 11:20:45;;;;;;;0.52;0.50;;;19.50;47.80;;;;;;5106888;27;20085;-61
2022/05/08 11:23:12;;;;;;;0.63;0.57;;;19.60;47.30;;;;;;5104487;27;20440;-61
2022/05/08 11:25:38;;;;;;;0.68;0.68;;;19.60;46.80;;;;;;5097478;28;20089;-60
2022/05/08 11:28:04;;;;;;;0.80;0.77;;;19.80;46.30;;;;;;5103673;27;20055;-61
2022/05/08 11:30:36;;;;;;;2.60;0.55;;;19.90;46.10;;;;;;5098999;28;20415;-61
2022/05/08 11:36:04;;;;;;;0.70;0.52;;;20.10;46.30;;;;;;5104616;28;20054;-65
2022/05/08 11:38:45;;;;;;;1.10;0.70;;;20.10;44.30;;;;;;5105157;28;20024;-65
2022/05/08 11:41:14;;;;;;;2.05;0.95;;;20.10;44.30;;;;;;5110712;27;20038;-65
2022/05/08 11:43:47;;;;;;;0.85;0.70;;;20.10;44.00;;;;;;5106518;28;20060;-65
2022/05/08 11:46:18;;;;;;;0.60;0.60;;;20.10;44.40;;;;;;5096975;28;20027;-61
2022/05/08 11:48:46;;;;;;;0.55;0.55;;;20.20;44.60;;;;;;5108197;27;20042;-65
2022/05/08 11:51:20;;;;;;;0.75;0.70;;;20.30;43.50;;;;;;5114222;27;20028;-65
2022/05/08 11:53:49;;;;;;;2.22;1.05;;;20.40;43.20;;;;;;5108951;27;20455;-65
2022/05/08 11:56:29;;;;;;;2.35;0.85;;;20.50;42.70;;;;;;5100515;28;20032;-65
2022/05/08 11:58:56;;;;;;;0.60;0.60;;;20.50;41.90;;;;;;5109130;27;20028;-65
2022/05/08 12:01:22;;;;;;;0.60;0.60;;;20.50;41.70;;;;;;5102157;27;20115;-65
2022/05/08 12:03:48;;;;;;;0.70;0.70;;;20.50;42.20;;;;;;5099097;27;20031;-61
2022/05/08 12:06:14;;;;;;;0.60;0.60;;;20.50;42.90;;;;;;5104682;27;20478;-61
2022/05/08 12:08:41;;;;;;;0.57;0.57;;;20.70;43.30;;;;;;5106599;28;20040;-65
2022/05/08 12:11:07;;;;;;;1.05;0.70;;;20.80;42.90;;;;;;5089736;27;20393;-66
2022/05/08 12:14:08;;;;;;;2.95;0.70;;;20.90;42.80;;;;;;5098548;28;20034;-65
2022/05/08 12:16:34;;;;;;;1.70;0.80;;;20.90;41.50;;;;;;5098358;28;20023;-65
2022/05/08 12:19:11;;;;;;;4.00;0.70;;;21.00;41.50;;;;;;5105292;27;20020;-65
2022/05/08 12:21:38;;;;;;;0.85;0.50;;;21.10;40.90;;;;;;5106665;27;20035;-66
2022/05/08 12:24:11;;;;;;;0.75;0.40;;;21.20;40.50;;;;;;5098588;28;20077;-65
2022/05/08 12:26:37;;;;;;;0.57;0.57;;;21.30;40.40;;;;;;5110585;27;20150;-65
2022/05/08 12:29:06;;;;;;;2.05;0.70;;;21.40;40.00;;;;;;5101178;27;20031;-65
2022/05/08 12:31:32;;;;;;;1.55;0.93;;;21.50;40.10;;;;;;5100160;27;20112;-65
2022/05/08 12:33:58;;;;;;;3.83;1.13;;;21.70;40.00;;;;;;5114005;27;20049;-65
2022/05/08 12:36:23;;;;;;;0.50;0.50;;;21.80;39.10;;;;;;5089780;28;20210;-65
2022/05/08 12:38:49;;;;;;;0.70;0.70;;;21.90;39.10;;;;;;5105313;28;20402;-65
2022/05/08 12:41:15;;;;;;;0.82;0.80;;;22.00;38.50;;;;;;5109981;27;20044;-65
2022/05/08 12:43:41;;;;;;;1.55;0.93;;;22.10;37.70;;;;;;5105372;28;20043;-65
2022/05/08 12:46:06;;;;;;;2.42;0.68;;;22.10;37.80;;;;;;5095977;28;20046;-62
2022/05/08 12:48:32;;;;;;;0.50;0.50;;;22.00;37.60;;;;;;5100354;27;20035;-65
2022/05/08 12:50:58;;;;;;;0.95;0.60;;;22.00;37.60;;;;;;5099227;28;20024;-65
2022/05/08 12:53:24;;;;;;;1.95;0.75;;;22.00;37.50;;;;;;5048649;28;20048;-65
2022/05/08 12:55:49;;;;;;;0.77;0.68;;;22.10;37.90;;;;;;5046078;28;20064;-65
2022/05/08 13:00:59;;;;;;;1.48;0.82;;;22.20;37.60;;;;;;5060217;28;20575;-65
2022/05/08 13:03:25;;;;;;;0.65;0.65;;;22.40;37.90;;;;;;5069460;28;20028;-65
2022/05/08 13:05:51;;;;;;;1.80;1.02;;;22.50;37.70;;;;;;5068452;28;20075;-65
2022/05/08 13:08:17;;;;;;;1.70;0.70;;;22.60;36.60;;;;;;5060077;28;20033;-61
2022/05/08 13:10:43;;;;;;;0.70;0.70;;;22.60;36.60;;;;;;5059159;28;20041;-61
2022/05/08 13:13:09;;;;;;;2.55;0.82;;;22.60;36.90;;;;;;5060648;28;20111;-65
2022/05/08 13:15:35;;;;;;;0.98;0.65;;;22.70;36.90;;;;;;5067268;28;20103;-61
2022/05/08 13:18:00;;;;;;;0.85;0.80;;;22.80;37.20;;;;;;5066250;28;20056;-62